Time;durP1;ratioP1;P1;durP2;ratioP2;P2;SDS_P1;SDS_P2;PMS_P1;PMS_P2;Temp;Humidity;BMP_temperature;BMP_pressure;BME280_temperature;BME280_humidity;BME280_pressure;Samples;Min_cycle;Max_cycle;Signal;HPM_P1;HPM_P2
2023/01/09 00:01:19;;;;;;;14.30;7.00;;;;;;;-14.30;67.40;100824.00;7344043;19;20481;-74
2023/01/09 00:03:44;;;;;;;15.73;7.38;;;;;;;-14.44;67.51;100828.50;7346241;19;20015;-73
2023/01/09 00:06:09;;;;;;;21.77;9.45;;;;;;;-14.46;67.81;100825.91;7346383;19;20023;-75
2023/01/09 00:08:34;;;;;;;17.17;7.43;;;;;;;-14.54;67.70;100827.19;7346339;19;20024;-69
2023/01/09 00:10:58;;;;;;;8.18;4.75;;;;;;;-14.32;68.08;100841.84;7349507;19;20032;-72
2023/01/09 00:13:23;;;;;;;11.50;4.80;;;;;;;-14.42;67.81;100817.53;7349275;19;20487;-74
2023/01/09 00:15:47;;;;;;;21.95;8.43;;;;;;;-14.44;67.89;100824.25;7346286;19;20465;-72
2023/01/09 00:18:12;;;;;;;18.98;7.93;;;;;;;-14.62;67.83;100832.75;7343471;19;20010;-73
2023/01/09 00:20:37;;;;;;;6.45;3.50;;;;;;;-14.61;67.93;100827.72;7344488;19;20507;-75
2023/01/09 00:23:02;;;;;;;18.13;7.80;;;;;;;-14.53;67.98;100835.75;7348177;19;20010;-74
2023/01/09 00:25:26;;;;;;;18.85;9.10;;;;;;;-14.62;68.03;100833.63;7345553;19;20014;-74
2023/01/09 00:27:51;;;;;;;16.25;7.35;;;;;;;-14.56;68.19;100841.63;7345334;19;20074;-75
2023/01/09 00:30:16;;;;;;;6.18;5.00;;;;;;;-14.47;68.00;100842.06;7346082;19;20686;-77
2023/01/09 00:32:40;;;;;;;6.13;2.15;;;;;;;-14.64;68.05;100835.25;7350222;19;20002;-77
2023/01/09 00:35:07;;;;;;;9.63;3.33;;;;;;;-14.71;68.01;100835.78;7347130;19;20010;-81
2023/01/09 00:37:32;;;;;;;12.10;6.05;;;;;;;-14.82;68.13;100834.38;7349010;19;20014;-78
2023/01/09 00:39:56;;;;;;;9.73;3.13;;;;;;;-14.80;68.33;100827.66;7348328;19;20032;-78
2023/01/09 00:42:24;;;;;;;10.20;5.47;;;;;;;-14.78;68.36;100836.25;7346985;19;20007;-73
2023/01/09 00:44:54;;;;;;;12.30;5.25;;;;;;;-14.77;68.56;100827.78;7346962;19;20018;-75
2023/01/09 00:47:44;;;;;;;2.72;2.58;;;;;;;-14.77;68.66;100820.97;7345333;19;20019;-80
2023/01/09 00:50:14;;;;;;;7.10;4.32;;;;;;;-14.87;68.49;100815.34;7342362;19;20349;-72
2023/01/09 00:52:40;;;;;;;14.45;5.57;;;;;;;-14.89;68.60;100822.06;7345042;19;20491;-74
2023/01/09 00:55:06;;;;;;;25.38;9.85;;;;;;;-14.93;68.68;100822.75;7344219;19;20018;-71
2023/01/09 00:57:30;;;;;;;16.15;6.95;;;;;;;-14.77;68.62;100822.66;7343130;19;20010;-74
2023/01/09 00:59:56;;;;;;;18.50;5.55;;;;;;;-14.90;68.48;100822.91;7347303;19;20025;-72
2023/01/09 01:02:21;;;;;;;10.15;6.68;;;;;;;-14.93;68.47;100813.41;7347354;19;20014;-72
2023/01/09 01:07:37;;;;;;;3.25;2.25;;;;;;;-15.05;68.65;100817.03;7345567;19;20007;-72
2023/01/09 01:10:03;;;;;;;7.78;4.80;;;;;;;-14.99;68.66;100814.75;7342522;19;20090;-71
2023/01/09 01:12:28;;;;;;;4.78;3.13;;;;;;;-14.97;68.61;100814.03;7346443;19;20011;-71
2023/01/09 01:14:53;;;;;;;11.43;4.10;;;;;;;-15.04;68.71;100829.03;7343460;19;20014;-75
2023/01/09 01:17:17;;;;;;;9.45;4.63;;;;;;;-15.11;68.61;100826.16;7345370;19;20010;-76
2023/01/09 01:19:42;;;;;;;4.22;3.13;;;;;;;-14.98;68.90;100829.31;7348197;19;20048;-75
2023/01/09 01:22:06;;;;;;;8.10;4.07;;;;;;;-15.02;68.83;100829.97;7347362;19;20039;-77
2023/01/09 01:24:31;;;;;;;12.30;4.05;;;;;;;-15.05;68.90;100834.94;7347439;19;20010;-73
2023/01/09 01:26:56;;;;;;;14.82;5.22;;;;;;;-15.11;68.94;100840.59;7343781;19;20015;-72
2023/01/09 01:29:20;;;;;;;4.72;3.35;;;;;;;-15.25;68.86;100845.06;7345984;19;20465;-77
2023/01/09 01:31:45;;;;;;;5.63;2.92;;;;;;;-15.29;68.98;100830.34;7345670;19;20036;-73
2023/01/09 01:34:10;;;;;;;17.63;3.33;;;;;;;-15.19;69.08;100821.47;7344958;19;20014;-74
2023/01/09 01:36:34;;;;;;;19.85;8.07;;;;;;;-15.27;69.08;100828.75;7343502;19;20010;-72
2023/01/09 01:38:59;;;;;;;16.42;7.22;;;;;;;-15.27;69.09;100826.22;7343363;19;20086;-74
2023/01/09 01:41:30;;;;;;;9.35;3.95;;;;;;;-15.38;69.21;100840.13;7344739;19;20017;-74
2023/01/09 01:44:01;;;;;;;12.35;5.63;;;;;;;-15.35;69.29;100841.97;7343581;19;20469;-78
2023/01/09 01:46:28;;;;;;;5.72;3.83;;;;;;;-15.16;69.33;100847.19;7343594;19;20029;-73
2023/01/09 01:48:58;;;;;;;20.73;7.60;;;;;;;-15.21;69.06;100846.94;7344319;19;20126;-74
2023/01/09 01:51:25;;;;;;;10.73;5.88;;;;;;;-15.25;69.14;100836.50;7344085;19;20335;-74
2023/01/09 01:53:56;;;;;;;4.57;2.65;;;;;;;-15.20;69.16;100845.28;7346972;19;20018;-76
2023/01/09 01:56:29;;;;;;;6.38;1.88;;;;;;;-15.25;69.23;100846.75;7346915;19;20011;-75
2023/01/09 01:58:53;;;;;;;7.95;4.78;;;;;;;-15.13;69.26;100848.22;7345616;19;20007;-74
2023/01/09 02:01:21;;;;;;;11.77;7.53;;;;;;;-15.10;69.35;100848.38;7345277;19;20013;-72
2023/01/09 02:03:46;;;;;;;3.10;2.50;;;;;;;-15.33;69.27;100846.34;7346840;19;20038;-82
2023/01/09 02:06:12;;;;;;;26.23;9.80;;;;;;;-15.35;69.32;100845.41;7348309;19;20010;-78
2023/01/09 02:08:37;;;;;;;7.38;3.80;;;;;;;-15.42;69.39;100848.44;7344508;19;20334;-75
2023/01/09 02:11:03;;;;;;;17.45;7.75;;;;;;;-15.47;69.60;100852.44;7341526;19;20338;-75
2023/01/09 02:13:28;;;;;;;20.38;10.30;;;;;;;-15.50;69.69;100839.50;7345479;19;20446;-76
2023/01/09 02:16:14;;;;;;;6.35;3.88;;;;;;;-15.42;69.72;100843.31;7346219;19;20010;-77
2023/01/09 02:19:14;;;;;;;29.15;10.55;;;;;;;-15.56;69.84;100855.41;7345594;19;20074;-80
2023/01/09 02:21:57;;;;;;;11.93;6.25;;;;;;;-15.63;69.79;100848.25;7339795;19;20144;-77
2023/01/09 02:24:40;;;;;;;21.42;6.47;;;;;;;-15.50;69.94;100852.28;7340337;19;20453;-79
2023/01/09 02:27:13;;;;;;;6.45;4.28;;;;;;;-15.36;69.92;100838.53;7341339;19;20015;-78
2023/01/09 02:29:59;;;;;;;8.57;3.58;;;;;;;-15.40;69.89;100851.94;7343573;19;20415;-77
2023/01/09 02:32:42;;;;;;;20.33;7.85;;;;;;;-15.53;69.96;100842.78;7348367;19;20022;-77
2023/01/09 02:35:15;;;;;;;4.55;3.50;;;;;;;-15.44;69.94;100852.59;7348660;19;20035;-65
2023/01/09 02:38:07;;;;;;;24.83;9.03;;;;;;;-15.40;70.23;100854.50;7348828;19;20038;-82
2023/01/09 02:40:46;;;;;;;22.70;8.43;;;;;;;-15.20;70.25;100848.72;7354665;19;20263;-81
2023/01/09 02:43:12;;;;;;;15.25;8.13;;;;;;;-15.40;70.18;100851.94;7354527;19;20056;-82
2023/01/09 02:45:38;;;;;;;5.75;3.58;;;;;;;-15.31;70.17;100851.53;7356391;19;20003;-76
2023/01/09 02:48:02;;;;;;;4.95;3.53;;;;;;;-15.29;70.11;100852.50;7350683;19;20033;-81
2023/01/09 02:50:47;;;;;;;22.00;8.80;;;;;;;-15.39;70.32;100863.06;7347499;19;20478;-81
2023/01/09 02:53:11;;;;;;;;;;;;;;;-15.37;70.20;100864.00;7349046;19;20378;-82
2023/01/09 02:55:44;;;;;;;15.32;6.10;;;;;;;-15.33;70.29;100869.34;7350760;19;20368;-82
2023/01/09 02:58:15;;;;;;;17.25;7.70;;;;;;;-15.30;70.37;100876.28;7349277;19;20303;-79
2023/01/09 03:00:55;;;;;;;5.20;3.60;;;;;;;-15.18;70.23;100882.91;7362364;19;20043;-81
2023/01/09 03:03:29;;;;;;;7.75;5.43;;;;;;;-14.94;70.05;100874.72;7365245;19;20021;-73
2023/01/09 03:05:57;;;;;;;3.05;1.98;;;;;;;-15.14;69.94;100878.84;7353557;19;20055;-75
2023/01/09 03:08:29;;;;;;;5.05;1.20;;;;;;;-15.25;70.01;100860.41;7348117;19;20011;-74
2023/01/09 03:11:03;;;;;;;18.17;7.60;;;;;;;-15.35;70.05;100875.19;7346346;19;20037;-74
2023/01/09 03:13:33;;;;;;;20.90;6.97;;;;;;;-15.20;69.92;100881.06;7349091;19;20018;-74
2023/01/09 03:16:04;;;;;;;6.47;3.25;;;;;;;-15.39;69.74;100878.38;7356194;19;20353;-79
2023/01/09 03:18:31;;;;;;;8.23;4.15;;;;;;;-15.36;69.42;100879.44;7352200;19;20079;-75
2023/01/09 03:20:56;;;;;;;3.35;2.70;;;;;;;-15.51;69.26;100886.31;7353261;19;20011;-76
2023/01/09 03:23:20;;;;;;;14.25;5.82;;;;;;;-15.78;69.49;100892.56;7347295;19;20076;-75
2023/01/09 03:25:45;;;;;;;5.38;3.85;;;;;;;-15.61;69.38;100894.34;7348975;19;20018;-76
2023/01/09 03:28:27;;;;;;;17.13;6.68;;;;;;;-15.84;69.48;100888.88;7346749;19;20066;-74
2023/01/09 03:30:52;;;;;;;8.75;4.10;;;;;;;-15.75;69.30;100887.59;7348822;19;20650;-76
2023/01/09 03:33:17;;;;;;;4.07;3.00;;;;;;;-15.80;69.36;100886.50;7346021;19;20369;-77
2023/01/09 03:35:41;;;;;;;10.20;4.13;;;;;;;-15.78;69.36;100906.19;7350805;19;20363;-80
2023/01/09 03:38:06;;;;;;;14.20;7.43;;;;;;;-16.00;69.42;100891.41;7349664;19;20013;-79
2023/01/09 03:40:31;;;;;;;14.95;5.97;;;;;;;-16.07;69.55;100899.53;7355257;19;20010;-75
2023/01/09 03:42:55;;;;;;;3.40;1.48;;;;;;;-15.99;69.62;100899.94;7352560;19;20011;-70
2023/01/09 03:45:20;;;;;;;7.75;3.10;;;;;;;-15.96;69.61;100898.44;7353226;19;20014;-74
2023/01/09 03:47:44;;;;;;;13.40;5.32;;;;;;;-15.97;69.62;100901.78;7349059;19;20031;-75
2023/01/09 03:50:09;;;;;;;2.60;2.45;;;;;;;-16.04;69.70;100899.72;7345996;19;20055;-71
2023/01/09 03:52:34;;;;;;;8.45;4.18;;;;;;;-15.96;69.72;100903.56;7345537;19;20021;-72
2023/01/09 03:54:59;;;;;;;2.53;2.33;;;;;;;-15.99;69.61;100910.16;7345442;19;20018;-70
2023/01/09 03:57:24;;;;;;;7.70;4.30;;;;;;;-16.03;69.69;100903.16;7347330;19;20552;-70
2023/01/09 03:59:49;;;;;;;11.57;5.05;;;;;;;-16.00;69.55;100899.06;7344914;19;20361;-71
2023/01/09 04:02:13;;;;;;;8.55;5.03;;;;;;;-16.04;69.58;100909.94;7347619;19;21201;-71
2023/01/09 04:04:38;;;;;;;5.78;3.80;;;;;;;-16.02;69.53;100907.44;7344697;19;20003;-70
2023/01/09 04:07:02;;;;;;;8.52;4.47;;;;;;;-16.03;69.66;100914.25;7345705;19;20464;-71
2023/01/09 04:09:27;;;;;;;9.13;4.65;;;;;;;-16.10;69.67;100919.81;7346369;19;20021;-72
2023/01/09 04:11:52;;;;;;;6.80;2.33;;;;;;;-16.16;69.75;100913.50;7343633;19;20085;-71
2023/01/09 04:14:16;;;;;;;4.28;2.47;;;;;;;-16.08;69.78;100902.00;7347116;19;20479;-70
2023/01/09 04:16:41;;;;;;;12.88;6.13;;;;;;;-16.10;69.73;100917.25;7345435;19;20040;-69
2023/01/09 04:19:06;;;;;;;15.20;7.00;;;;;;;-16.17;69.86;100912.63;7348150;19;20471;-70
2023/01/09 04:21:30;;;;;;;8.95;5.03;;;;;;;-16.16;69.98;100928.81;7347398;19;20015;-72
2023/01/09 04:23:55;;;;;;;16.02;6.07;;;;;;;-16.09;69.98;100923.22;7344504;19;20026;-70
2023/01/09 04:26:20;;;;;;;5.82;4.15;;;;;;;-15.89;69.85;100940.50;7345295;19;20007;-69
2023/01/09 04:28:44;;;;;;;3.33;2.90;;;;;;;-15.79;69.36;100934.22;7343132;19;20110;-69
2023/01/09 04:31:09;;;;;;;4.88;3.53;;;;;;;-15.87;68.96;100924.47;7341677;19;20029;-70
2023/01/09 04:33:34;;;;;;;6.13;4.13;;;;;;;-16.00;68.93;100934.81;7342579;19;20014;-70
2023/01/09 04:35:58;;;;;;;18.77;7.80;;;;;;;-16.20;68.97;100935.41;7342500;19;20049;-73
2023/01/09 04:38:23;;;;;;;8.63;5.15;;;;;;;-16.04;69.29;100929.50;7341604;19;20018;-69
2023/01/09 04:40:48;;;;;;;11.35;5.00;;;;;;;-16.07;69.26;100929.31;7342601;19;20029;-68
2023/01/09 04:43:12;;;;;;;16.80;8.32;;;;;;;-15.92;69.30;100936.16;7340406;19;20034;-68
2023/01/09 04:45:37;;;;;;;19.98;7.57;;;;;;;-16.07;68.86;100934.41;7342062;19;20041;-68
2023/01/09 04:48:02;;;;;;;9.20;4.07;;;;;;;-16.14;68.92;100938.31;7342327;19;20018;-68
2023/01/09 04:50:26;;;;;;;3.22;1.70;;;;;;;-16.13;68.55;100942.59;7341628;19;20041;-68
2023/01/09 04:52:51;;;;;;;1.42;1.33;;;;;;;-16.24;68.77;100941.13;7339004;19;20015;-68
2023/01/09 04:55:16;;;;;;;6.88;3.08;;;;;;;-16.27;68.97;100946.97;7341697;19;20010;-68
2023/01/09 04:57:40;;;;;;;5.03;2.95;;;;;;;-16.31;68.97;100945.03;7340175;19;20026;-68
2023/01/09 05:00:10;;;;;;;12.23;5.07;;;;;;;-16.31;69.06;100952.69;7342341;19;20006;-67
2023/01/09 05:02:36;;;;;;;18.83;7.93;;;;;;;-16.05;68.90;100948.16;7345623;19;20018;-68
2023/01/09 05:05:00;;;;;;;17.55;6.35;;;;;;;-16.36;69.02;100950.69;7342381;19;20082;-68
2023/01/09 05:07:25;;;;;;;9.13;6.15;;;;;;;-16.27;69.20;100941.88;7343742;19;20014;-69
2023/01/09 05:09:50;;;;;;;9.32;3.90;;;;;;;-16.29;69.12;100943.44;7342579;19;20006;-68
2023/01/09 05:12:16;;;;;;;1.85;1.40;;;;;;;-16.23;69.20;100946.31;7344128;19;20058;-67
2023/01/09 05:14:40;;;;;;;3.67;3.15;;;;;;;-16.30;69.01;100957.00;7341281;19;20011;-67
2023/01/09 05:17:05;;;;;;;9.35;5.75;;;;;;;-16.08;69.12;100963.28;7342739;19;20499;-67
2023/01/09 05:19:29;;;;;;;9.73;5.30;;;;;;;-16.30;68.84;100957.00;7344597;19;20022;-69
2023/01/09 05:21:54;;;;;;;5.80;4.43;;;;;;;-16.35;68.98;100944.75;7343091;19;20089;-70
2023/01/09 05:24:19;;;;;;;16.33;5.93;;;;;;;-16.47;69.17;100961.94;7343493;19;20011;-69
2023/01/09 05:26:43;;;;;;;6.90;3.78;;;;;;;-16.64;69.30;100964.47;7342330;19;20015;-68
2023/01/09 05:29:09;;;;;;;6.10;2.90;;;;;;;-16.53;69.40;100977.78;7344306;19;20010;-68
2023/01/09 05:31:33;;;;;;;18.30;6.20;;;;;;;-16.61;69.58;100962.06;7343719;19;20025;-68
2023/01/09 05:33:59;;;;;;;15.23;7.05;;;;;;;-16.65;69.79;100972.91;7343507;19;20011;-68
2023/01/09 05:36:24;;;;;;;8.38;6.50;;;;;;;-16.53;69.91;100980.34;7344346;19;20010;-73
2023/01/09 05:38:49;;;;;;;8.57;4.07;;;;;;;-16.51;69.49;100978.75;7340642;19;20015;-68
2023/01/09 05:41:13;;;;;;;7.47;3.55;;;;;;;-16.63;69.55;100981.53;7343909;19;20011;-68
2023/01/09 05:43:38;;;;;;;12.05;5.20;;;;;;;-16.74;69.52;100987.69;7342966;19;20014;-68
2023/01/09 05:46:03;;;;;;;15.02;4.65;;;;;;;-16.76;69.73;100993.47;7347669;19;20025;-68
2023/01/09 05:48:27;;;;;;;24.90;9.20;;;;;;;-16.45;69.59;100990.97;7344293;19;20010;-70
2023/01/09 05:50:52;;;;;;;16.48;11.32;;;;;;;-16.61;69.18;100986.69;7341576;19;20013;-70
2023/01/09 05:53:17;;;;;;;4.10;2.22;;;;;;;-16.88;69.06;100997.84;7342798;19;20022;-70
2023/01/09 05:55:41;;;;;;;3.58;2.95;;;;;;;-16.97;69.28;100988.88;7342990;19;20483;-71
2023/01/09 05:58:06;;;;;;;6.10;3.97;;;;;;;-16.88;69.39;100995.31;7343231;19;20785;-71
2023/01/09 06:00:31;;;;;;;4.57;3.55;;;;;;;-16.92;69.48;100991.69;7344032;19;20350;-71
2023/01/09 06:02:56;;;;;;;13.02;6.22;;;;;;;-16.92;69.43;100996.78;7340866;19;20078;-69
2023/01/09 06:05:20;;;;;;;7.07;4.07;;;;;;;-17.06;69.60;100993.44;7349172;19;20014;-70
2023/01/09 06:07:45;;;;;;;10.30;4.40;;;;;;;-16.87;69.69;101008.16;7352677;19;20017;-71
2023/01/09 06:10:12;;;;;;;8.93;3.28;;;;;;;-16.99;69.50;101000.66;7348133;19;20018;-69
2023/01/09 06:12:37;;;;;;;10.88;4.90;;;;;;;-17.08;69.63;101014.53;7351641;19;20007;-68
2023/01/09 06:15:03;;;;;;;10.77;4.40;;;;;;;-17.12;69.63;101012.56;7348974;19;20014;-69
2023/01/09 06:17:27;;;;;;;3.13;1.80;;;;;;;-17.18;69.82;101014.78;7352012;19;20386;-70
2023/01/09 06:19:52;;;;;;;6.85;3.50;;;;;;;-17.13;69.91;101015.91;7349337;19;20022;-70
2023/01/09 06:22:16;;;;;;;7.63;4.03;;;;;;;-17.09;70.13;101015.31;7349806;19;20021;-70
2023/01/09 06:24:41;;;;;;;12.77;4.93;;;;;;;-16.87;70.35;101015.81;7350858;19;20082;-70
2023/01/09 06:27:06;;;;;;;9.95;3.70;;;;;;;-16.93;70.12;101041.81;7350042;19;20036;-68
2023/01/09 06:29:30;;;;;;;5.30;2.53;;;;;;;-16.91;70.15;101029.16;7351381;19;20035;-70
2023/01/09 06:31:55;;;;;;;11.77;4.45;;;;;;;-16.76;70.19;101024.97;7346404;19;20017;-69
2023/01/09 06:34:19;;;;;;;11.50;4.70;;;;;;;-16.90;70.14;101020.72;7350006;19;20027;-70
2023/01/09 06:36:44;;;;;;;16.00;6.40;;;;;;;-16.93;70.56;101020.56;7346370;19;20362;-72
2023/01/09 06:39:08;;;;;;;12.57;4.97;;;;;;;-16.80;70.65;101024.69;7348990;19;20021;-73
2023/01/09 06:41:34;;;;;;;24.42;7.25;;;;;;;-16.68;70.80;101028.84;7350027;19;20011;-72
2023/01/09 06:43:58;;;;;;;19.73;5.47;;;;;;;-16.49;70.66;101035.88;7347838;19;20066;-72
2023/01/09 06:46:23;;;;;;;13.60;5.50;;;;;;;-16.47;70.66;101033.38;7350497;19;20019;-71
2023/01/09 06:48:47;;;;;;;6.82;3.63;;;;;;;-16.28;70.60;101046.44;7346770;19;20018;-71
2023/01/09 06:51:12;;;;;;;2.78;2.15;;;;;;;-16.13;70.28;101034.53;7345390;19;20015;-70
2023/01/09 06:53:37;;;;;;;14.93;6.63;;;;;;;-16.07;70.18;101036.56;7349396;19;20015;-71
2023/01/09 06:56:02;;;;;;;10.90;4.22;;;;;;;-16.01;69.77;101042.88;7345428;19;20402;-70
2023/01/09 06:58:27;;;;;;;5.97;4.10;;;;;;;-16.06;69.71;101038.31;7348871;19;20383;-70
2023/01/09 07:00:54;;;;;;;7.00;5.15;;;;;;;-15.98;69.34;101039.63;7348558;19;20022;-69
2023/01/09 07:03:20;;;;;;;13.82;5.53;;;;;;;-16.17;69.32;101045.38;7346217;19;20018;-70
2023/01/09 07:05:46;;;;;;;9.35;6.03;;;;;;;-16.21;69.44;101041.75;7347756;19;20006;-70
2023/01/09 07:08:11;;;;;;;11.95;4.60;;;;;;;-16.17;69.56;101039.38;7345666;19;20461;-70
2023/01/09 07:10:35;;;;;;;6.93;4.22;;;;;;;-16.03;69.34;101044.50;7345569;19;20445;-71
2023/01/09 07:13:00;;;;;;;9.55;4.60;;;;;;;-15.99;69.16;101040.41;7346594;19;20010;-71
2023/01/09 07:15:25;;;;;;;9.13;4.72;;;;;;;-16.01;68.80;101047.97;7346715;19;20018;-71
2023/01/09 07:17:51;;;;;;;9.60;4.47;;;;;;;-16.17;68.98;101054.72;7349677;19;20587;-70
2023/01/09 07:20:16;;;;;;;8.35;5.43;;;;;;;-15.97;68.82;101044.81;7345738;19;20015;-70
2023/01/09 07:22:41;;;;;;;13.18;6.70;;;;;;;-16.05;68.52;101047.75;7348512;19;20021;-68
2023/01/09 07:25:06;;;;;;;2.63;2.10;;;;;;;-16.12;68.77;101048.16;7347100;19;20011;-69
2023/01/09 07:27:30;;;;;;;13.80;4.45;;;;;;;-15.89;68.66;101042.69;7348334;19;20011;-69
2023/01/09 07:29:55;;;;;;;5.90;2.10;;;;;;;-15.91;68.54;101042.59;7344218;19;20048;-69
2023/01/09 07:32:20;;;;;;;13.25;5.65;;;;;;;-15.90;68.55;101044.34;7346318;19;20461;-70
2023/01/09 07:34:44;;;;;;;13.55;6.30;;;;;;;-15.63;68.09;101039.03;7347704;19;20014;-70
2023/01/09 07:37:09;;;;;;;4.18;2.30;;;;;;;-15.74;68.23;101050.31;7346955;19;20014;-70
2023/01/09 07:39:34;;;;;;;3.35;1.38;;;;;;;-15.62;68.12;101051.00;7347779;19;20032;-69
2023/01/09 07:41:58;;;;;;;2.17;1.83;;;;;;;-15.50;67.89;101046.53;7344132;19;20022;-70
2023/01/09 07:44:23;;;;;;;11.75;4.20;;;;;;;-15.48;67.66;101043.28;7345741;19;20677;-69
2023/01/09 07:46:48;;;;;;;0.63;0.63;;;;;;;-15.50;67.89;101051.66;7350018;19;20428;-69
2023/01/09 07:49:12;;;;;;;12.52;6.80;;;;;;;-15.21;67.59;101056.63;7347771;19;20013;-68
2023/01/09 07:51:41;;;;;;;17.15;5.78;;;;;;;-15.12;67.39;101057.13;7346410;19;20033;-68
2023/01/09 07:54:06;;;;;;;13.90;5.55;;;;;;;-15.31;67.23;101040.72;7348776;19;20479;-68
2023/01/09 07:56:30;;;;;;;8.30;3.33;;;;;;;-15.21;67.22;101046.41;7345070;19;20449;-72
2023/01/09 07:58:55;;;;;;;7.60;3.55;;;;;;;-14.99;66.91;101056.09;7347624;19;20015;-70
2023/01/09 08:01:19;;;;;;;6.43;3.33;;;;;;;-15.00;66.65;101053.44;7343989;19;20054;-71
2023/01/09 08:03:44;;;;;;;6.85;3.90;;;;;;;-14.96;66.83;101058.81;7346970;19;20013;-71
2023/01/09 08:06:09;;;;;;;2.58;1.65;;;;;;;-14.49;66.87;101058.72;7347647;19;20002;-71
2023/01/09 08:08:33;;;;;;;5.82;3.10;;;;;;;-13.53;66.48;101050.56;7347493;19;20018;-71
2023/01/09 08:10:58;;;;;;;9.13;2.78;;;;;;;-12.77;65.53;101045.47;7343816;19;20018;-71
2023/01/09 08:13:22;;;;;;;7.32;2.50;;;;;;;-11.82;64.39;101033.19;7345297;19;20021;-71
2023/01/09 08:15:47;;;;;;;9.02;4.22;;;;;;;-10.93;62.81;101040.91;7346691;19;20327;-71
2023/01/09 08:18:12;;;;;;;6.45;4.35;;;;;;;-10.29;61.27;101043.22;7343530;19;20015;-71
2023/01/09 08:20:36;;;;;;;5.43;2.63;;;;;;;-9.81;59.70;101038.75;7346105;19;20475;-71
2023/01/09 08:23:01;;;;;;;5.75;4.00;;;;;;;-9.57;57.93;101033.50;7346288;19;20018;-71
2023/01/09 08:25:26;;;;;;;4.22;3.35;;;;;;;-9.24;57.20;101034.53;7345205;19;20015;-71
2023/01/09 08:27:51;;;;;;;5.00;2.83;;;;;;;-9.30;55.54;101033.47;7342122;19;20002;-71
2023/01/09 08:30:16;;;;;;;7.25;3.08;;;;;;;-9.36;55.06;101039.31;7342253;19;20490;-71
2023/01/09 08:32:41;;;;;;;13.23;5.05;;;;;;;-9.37;55.32;101036.72;7344103;19;20047;-70
2023/01/09 08:35:07;;;;;;;9.02;4.53;;;;;;;-9.11;55.87;101032.31;7342114;19;20014;-71
2023/01/09 08:37:31;;;;;;;9.70;4.60;;;;;;;-8.59;55.26;101042.47;7344705;19;20037;-71
2023/01/09 08:39:56;;;;;;;9.70;4.82;;;;;;;-8.44;53.55;101033.38;7346686;19;20030;-71
2023/01/09 08:47:51;;;;;;;11.05;5.32;;;;;;;-7.66;52.76;101029.28;7341135;19;20034;-70
2023/01/09 08:50:16;;;;;;;5.18;3.67;;;;;;;-6.90;51.16;101018.06;7342783;19;20007;-69
2023/01/09 08:52:40;;;;;;;7.65;3.72;;;;;;;-7.42;49.00;101022.09;7339961;19;20011;-71
2023/01/09 08:55:05;;;;;;;12.02;5.45;;;;;;;-7.64;49.40;101012.06;7341434;19;20044;-70
2023/01/09 08:57:30;;;;;;;11.52;4.25;;;;;;;-7.39;48.86;101017.00;7342901;19;20023;-71
2023/01/09 08:59:54;;;;;;;8.40;3.00;;;;;;;-7.42;47.63;101019.50;7340742;19;20038;-70
2023/01/09 09:02:19;;;;;;;9.70;3.22;;;;;;;-7.47;47.41;101018.53;7342379;19;20013;-71
2023/01/09 09:04:45;;;;;;;4.32;3.38;;;;;;;-8.23;46.32;101009.75;7340677;19;20025;-71
2023/01/09 09:07:09;;;;;;;5.25;2.95;;;;;;;-8.90;47.23;101007.97;7341094;19;20007;-70
2023/01/09 09:09:34;;;;;;;11.05;4.93;;;;;;;-9.20;47.44;101015.72;7338547;19;20007;-69
2023/01/09 09:11:58;;;;;;;7.13;4.13;;;;;;;-9.34;48.49;101024.75;7338923;19;20011;-69
2023/01/09 09:17:06;;;;;;;5.97;3.55;;;;;;;-9.82;48.35;101010.34;7340352;19;20523;-69
2023/01/09 09:19:31;;;;;;;7.00;3.50;;;;;;;-10.59;48.49;101016.34;7341458;19;20457;-69
2023/01/09 09:21:55;;;;;;;5.78;3.00;;;;;;;-11.03;49.09;101013.06;7341835;19;20010;-69
2023/01/09 09:24:20;;;;;;;4.45;2.53;;;;;;;-11.27;49.65;101018.16;7344474;19;20406;-69
2023/01/09 09:26:44;;;;;;;8.88;4.15;;;;;;;-11.17;50.42;101015.13;7343861;19;20014;-68
2023/01/09 09:29:09;;;;;;;9.40;4.40;;;;;;;-10.81;50.68;101009.56;7344791;19;20021;-68
2023/01/09 09:31:36;;;;;;;5.40;2.13;;;;;;;-10.30;51.05;101010.50;7346377;19;20078;-71
2023/01/09 09:34:00;;;;;;;9.73;4.35;;;;;;;-9.74;50.24;101009.75;7345311;19;20014;-71
2023/01/09 09:36:25;;;;;;;3.92;3.17;;;;;;;-9.36;49.32;101018.66;7344896;19;20110;-72
2023/01/09 09:38:50;;;;;;;7.93;2.50;;;;;;;-9.60;47.60;101028.25;7346232;19;20416;-71
2023/01/09 09:44:45;;;;;;;8.77;4.47;;;;;;;-10.14;49.46;101023.03;7349633;19;20480;-69
2023/01/09 09:47:29;;;;;;;6.45;3.22;;;;;;;-10.30;50.02;101020.81;7349833;19;20014;-69
2023/01/09 09:50:18;;;;;;;6.43;3.47;;;;;;;-10.82;48.92;101029.28;7352953;19;20550;-70
2023/01/09 09:53:14;;;;;;;3.53;1.70;;;;;;;-11.01;50.37;101027.75;7357775;19;20025;-70
2023/01/09 09:55:41;;;;;;;2.17;1.58;;;;;;;-11.03;50.60;101029.38;7352978;19;20017;-69
2023/01/09 09:58:20;;;;;;;5.20;3.33;;;;;;;-10.87;49.21;101028.25;7351204;19;20022;-75
2023/01/09 10:00:45;;;;;;;6.82;4.10;;;;;;;-11.22;49.54;101023.50;7351697;19;20022;-74
2023/01/09 10:03:23;;;;;;;5.95;2.13;;;;;;;-11.42;50.30;101036.50;7349758;19;20010;-75
2023/01/09 10:05:50;;;;;;;4.63;3.00;;;;;;;-11.46;50.68;101044.91;7351409;19;20326;-74
2023/01/09 10:08:35;;;;;;;6.00;2.70;;;;;;;-11.28;50.32;101034.44;7348797;19;20015;-75
2023/01/09 10:11:01;;;;;;;9.90;4.65;;;;;;;-11.11;51.18;101037.66;7348590;19;20010;-75
2023/01/09 10:16:50;;;;;;;5.47;3.03;;;;;;;-10.56;49.72;101037.06;7353027;19;20082;-74
2023/01/09 10:19:52;;;;;;;6.50;3.38;;;;;;;-10.68;49.57;101037.53;7348180;19;20010;-69
2023/01/09 10:22:31;;;;;;;6.93;3.55;;;;;;;-10.67;50.08;101042.72;7346700;19;20017;-68
2023/01/09 10:25:34;;;;;;;3.15;2.03;;;;;;;-10.70;50.17;101055.50;7345793;19;20384;-68
2023/01/09 10:28:11;;;;;;;8.95;4.07;;;;;;;-11.45;49.98;101050.94;7348050;19;20018;-69
2023/01/09 10:30:56;;;;;;;8.48;3.33;;;;;;;-11.77;50.69;101047.13;7344481;19;20047;-67
2023/01/09 10:33:24;;;;;;;8.20;4.35;;;;;;;-11.60;51.73;101052.88;7344873;19;20011;-68
2023/01/09 10:36:07;;;;;;;7.53;3.67;;;;;;;-11.02;50.42;101045.72;7346852;19;20022;-68
2023/01/09 10:38:36;;;;;;;2.10;1.75;;;;;;;-11.46;49.73;101052.63;7344724;19;20033;-68
2023/01/09 10:41:12;;;;;;;10.88;4.53;;;;;;;-12.23;50.66;101054.66;7346346;19;20038;-69
2023/01/09 10:43:43;;;;;;;5.88;2.15;;;;;;;-12.69;51.42;101049.22;7344133;19;20021;-70
2023/01/09 10:46:47;;;;;;;7.10;3.35;;;;;;;-13.17;52.57;101056.53;7345454;19;20014;-71
2023/01/09 10:49:16;;;;;;;4.18;3.58;;;;;;;-13.61;52.66;101060.47;7345015;19;20011;-67
2023/01/09 10:52:15;;;;;;;2.80;2.30;;;;;;;-13.96;53.26;101065.59;7340405;19;20129;-67
2023/01/09 10:54:51;;;;;;;9.75;4.07;;;;;;;-14.43;53.77;101065.81;7343642;19;20082;-71
2023/01/09 10:57:41;;;;;;;4.82;2.70;;;;;;;-14.45;54.56;101075.13;7345479;19;20017;-70
2023/01/09 11:00:07;;;;;;;8.13;2.78;;;;;;;-14.54;54.31;101078.06;7343809;19;20049;-70
2023/01/09 11:02:33;;;;;;;11.60;3.42;;;;;;;-14.90;54.84;101076.19;7346342;19;20502;-69
2023/01/09 11:04:58;;;;;;;5.93;3.47;;;;;;;-15.00;55.21;101079.91;7343468;19;20023;-70
2023/01/09 11:07:28;;;;;;;12.40;4.53;;;;;;;-15.08;55.56;101083.75;7345166;19;20014;-70
2023/01/09 11:09:58;;;;;;;8.82;2.90;;;;;;;-14.77;55.58;101079.44;7342204;19;20014;-70
2023/01/09 11:12:27;;;;;;;3.00;2.10;;;;;;;-14.94;55.28;101072.59;7342559;19;20026;-70
2023/01/09 11:14:52;;;;;;;6.00;2.72;;;;;;;-15.12;55.34;101075.03;7345579;19;20466;-68
2023/01/09 11:17:24;;;;;;;6.78;3.13;;;;;;;-15.10;55.63;101076.00;7345060;19;20385;-69
2023/01/09 11:20:04;;;;;;;6.85;3.45;;;;;;;-15.13;55.51;101080.09;7346940;19;20031;-70
2023/01/09 11:22:51;;;;;;;4.55;2.20;;;;;;;-15.17;55.22;101075.59;7346919;19;20014;-71
2023/01/09 11:25:19;;;;;;;4.57;2.85;;;;;;;-15.29;55.62;101072.38;7349780;19;20018;-70
2023/01/09 11:28:04;;;;;;;4.00;2.78;;;;;;;-15.33;55.72;101080.66;7347369;19;20018;-70
2023/01/09 11:30:32;;;;;;;4.43;2.92;;;;;;;-15.60;55.95;101070.75;7344563;19;20018;-70
2023/01/09 11:32:58;;;;;;;7.30;3.85;;;;;;;-15.76;56.03;101083.44;7348264;19;20021;-70
2023/01/09 11:35:30;;;;;;;6.28;3.45;;;;;;;-15.79;56.84;101085.81;7346002;19;20014;-70